Gloversville, NY (12078)

8:39 AM EDT on August 29, 2015 (GMT -0400)
Gloversville | | Change Station
CLOSE
Current Station
Personal Weather Station
Location: Gloversville, NY
Elevation: 892 ft
Nearby Weather Stations

Elev 892 ft 43.05 °N, 74.33 °W | Updated 7 minutes ago

Partly Cloudy
Partly Cloudy
62.4 °F
Feels Like 62.4 °F
N
0.0
Wind Variable Wind from ESE

Today
High -- | Low -- °F
--% Chance of Precip.
Yesterday
High -- | Low -- °F
Precip. -- in
6:18 AM 7:37 PM
Full, 100% visible
Pressure 30.22 in
Visibility 10.0 miles
Clouds Few 20000 ft
Few 27000 ft
Dew Point 57 °F
Humidity 82%
Rainfall 0.00 in
Snow Depth Not available.
UV 1 out of 12
Pollen 9.10 out of 12
Air Quality Not available.
Flu Activity Not available.
METAR KALB 291151Z 00000KT 10SM VCFG FEW200 FEW270 15/13 A3022 RMK AO2 SLP233 FEW270 V SCT VCFG E-SW T01500128 10150 20117 51011
Pressure 30.22 in
Visibility 10.0 miles
Clouds Few 20000 ft
Few 27000 ft
Dew Point 57 °F
Humidity 82%
Rainfall 0.00 in
Snow Depth Not available.
UV 1 out of 12
Pollen 9.10 out of 12
Air Quality Not available.
Flu Activity Not available.
METAR KALB 291151Z 00000KT 10SM VCFG FEW200 FEW270 15/13 A3022 RMK AO2 SLP233 FEW270 V SCT VCFG E-SW T01500128 10150 20117 51011

10-Day Weather Forecast

×

Almanac

Astronomy

Aug. 29, 2015 Rise Set
Actual Time
Civil Twilight
Nautical Twilight
Astronomical Twilight
Moon
Length of Visible Light
Length of Day
Tomorrow will be .
, % of the Moon is Illuminated

Today's Extremes

State Highs State Lows

Community

WunderPhotos

Upload Photos

1,850,676 photos uploaded!

WunderBlogs® & News

Nearby

Air Quality

  Air Quality AQ Index Pollutant
Not available.

Snow Depth

Station Depth Elevation

Earthquake Activity

City Distance Mag. Time & Date
Minimum magnitude displayed is 2.5.

Coastal Water Temperatures

Place Temperature

Stations

Nearby Weather Stations

Station Location Temp. Windchill Dew Point Humidity Wind Precip. Elev Updated Type